createdAt,value
2018-04-24T00:12:32.105Z,22.62
2018-04-24T00:13:32.045Z,22.57
2018-04-24T00:14:31.996Z,22.57
2018-04-24T00:15:31.950Z,22.57
2018-04-24T00:16:31.905Z,22.56
2018-04-24T00:17:31.862Z,22.60
2018-04-24T00:18:31.815Z,22.59
2018-04-24T00:19:31.772Z,22.60
2018-04-24T00:20:31.732Z,22.57
2018-04-24T00:21:31.682Z,22.68
2018-04-24T00:22:31.640Z,22.74
2018-04-24T00:23:31.595Z,22.77
2018-04-24T00:24:31.558Z,22.83
2018-04-24T00:25:31.509Z,22.74
2018-04-24T00:26:31.465Z,22.84
2018-04-24T00:27:31.424Z,22.80
2018-04-24T00:28:31.382Z,22.80
2018-04-24T00:29:31.340Z,22.84
2018-04-24T00:30:31.298Z,22.84
2018-04-24T00:31:31.254Z,22.90
2018-04-24T00:32:31.215Z,22.89
2018-04-24T00:33:31.168Z,22.99
2018-04-24T00:34:31.130Z,22.96
2018-04-24T00:35:31.085Z,22.93
2018-04-24T00:36:31.045Z,22.97
2018-04-24T00:37:31.004Z,22.97
2018-04-24T00:38:30.969Z,22.92
2018-04-24T00:39:30.918Z,23.07
2018-04-24T00:40:30.876Z,22.97
2018-04-24T00:41:30.836Z,23.07
2018-04-24T00:42:30.798Z,23.07
2018-04-24T00:43:30.747Z,23.08
2018-04-24T00:44:30.707Z,23.09
2018-04-24T00:45:30.666Z,23.12
2018-04-24T00:46:30.623Z,23.12
2018-04-24T00:47:30.583Z,23.05
2018-04-24T00:48:30.541Z,23.11
2018-04-24T00:49:30.502Z,23.12
2018-04-24T00:50:30.456Z,23.12
2018-04-24T00:51:30.411Z,23.09
2018-04-24T00:52:30.369Z,23.12
2018-04-24T00:53:30.338Z,23.09
2018-04-24T00:54:30.286Z,23.08
2018-04-24T00:55:30.246Z,23.07
2018-04-24T00:56:30.211Z,23.14
2018-04-24T00:57:30.163Z,23.05
2018-04-24T00:58:30.118Z,23.04
2018-04-24T00:59:30.080Z,23.09
2018-04-24T01:00:30.033Z,23.11
2018-04-24T01:01:29.999Z,23.11
2018-04-24T01:02:29.948Z,23.15
2018-04-24T01:03:29.910Z,23.08
2018-04-24T01:04:29.875Z,23.17
2018-04-24T01:05:29.831Z,23.07
2018-04-24T01:06:29.790Z,23.20
2018-04-24T01:07:29.752Z,23.09
2018-04-24T01:08:29.705Z,23.11
2018-04-24T01:09:29.658Z,23.17
2018-04-24T01:10:29.620Z,23.12
2018-04-24T01:11:29.579Z,23.12
2018-04-24T01:12:29.537Z,23.15
2018-04-24T01:13:29.498Z,23.15
2018-04-24T01:14:29.453Z,23.14
2018-04-24T01:15:29.413Z,23.12
2018-04-24T01:16:29.370Z,23.15
2018-04-24T01:17:29.331Z,23.11
2018-04-24T01:18:29.285Z,23.14
2018-04-24T01:19:29.267Z,23.07
2018-04-24T01:20:29.205Z,23.05
2018-04-24T01:21:29.158Z,23.12
2018-04-24T01:22:29.117Z,23.08
2018-04-24T01:23:29.079Z,23.07
2018-04-24T01:24:29.044Z,23.12
2018-04-24T01:25:28.997Z,23.07
2018-04-24T01:26:28.952Z,23.12
2018-04-24T01:27:28.909Z,23.05
2018-04-24T01:28:28.868Z,23.14
2018-04-24T01:29:28.827Z,23.15
2018-04-24T01:30:28.789Z,23.12
2018-04-24T01:31:28.743Z,23.07
2018-04-24T01:32:28.706Z,23.05
2018-04-24T01:33:28.661Z,23.20
2018-04-24T01:34:28.631Z,23.07
2018-04-24T01:35:28.575Z,23.19
2018-04-24T01:36:28.542Z,23.04
2018-04-24T01:37:28.492Z,23.11
2018-04-24T01:38:28.454Z,23.12
2018-04-24T01:39:28.407Z,23.09
2018-04-24T01:40:28.368Z,23.15
2018-04-24T01:41:28.327Z,23.19
2018-04-24T01:42:28.279Z,23.07
2018-04-24T01:43:28.239Z,23.11
2018-04-24T01:44:28.201Z,23.17
2018-04-24T01:45:28.166Z,23.08
2018-04-24T01:46:28.122Z,23.08
2018-04-24T01:47:28.075Z,23.05
2018-04-24T01:48:28.032Z,23.15
2018-04-24T01:49:27.997Z,23.15
2018-04-24T01:50:27.949Z,23.08
2018-04-24T01:51:27.913Z,23.08
2018-04-24T01:52:27.875Z,23.08
2018-04-24T01:53:27.833Z,23.08
2018-04-24T01:54:27.786Z,23.11
2018-04-24T01:55:27.743Z,23.14
2018-04-24T01:56:27.700Z,23.17
2018-04-24T01:57:27.660Z,23.07
2018-04-24T01:58:27.621Z,23.08
2018-04-24T01:59:27.583Z,23.12
2018-04-24T02:00:27.560Z,23.12
2018-04-24T02:01:27.506Z,23.11
2018-04-24T02:02:27.448Z,23.04
2018-04-24T02:03:27.420Z,23.08
2018-04-24T02:04:27.370Z,23.11
2018-04-24T02:05:27.327Z,23.15
2018-04-24T02:06:27.282Z,23.04
2018-04-24T02:07:27.242Z,23.15
2018-04-24T02:08:27.196Z,23.12
2018-04-24T02:09:27.155Z,23.12
2018-04-24T02:10:27.115Z,23.07
2018-04-24T02:11:27.074Z,23.11
2018-04-24T02:12:27.036Z,23.15
2018-04-24T02:13:26.991Z,23.09
2018-04-24T02:14:26.952Z,23.08
2018-04-24T02:15:26.909Z,23.08
2018-04-24T02:16:26.865Z,23.14
2018-04-24T02:17:26.898Z,23.11
2018-04-24T02:18:26.779Z,23.05
2018-04-24T02:19:26.737Z,23.09
2018-04-24T02:20:26.696Z,23.07
2018-04-24T02:21:26.660Z,23.09
2018-04-24T02:22:26.618Z,23.07
2018-04-24T02:23:26.571Z,23.05
2018-04-24T02:24:26.530Z,23.05
2018-04-24T02:25:26.488Z,22.97
2018-04-24T02:26:26.451Z,23.07
2018-04-24T02:27:26.422Z,23.08
2018-04-24T02:28:26.367Z,23.02
2018-04-24T02:29:26.321Z,23.07
2018-04-24T02:30:26.285Z,23.05
2018-04-24T02:31:26.239Z,23.07
2018-04-24T02:32:26.209Z,23.05
2018-04-24T02:33:26.160Z,23.02
2018-04-24T02:34:26.123Z,23.07
2018-04-24T02:35:26.084Z,23.08
2018-04-24T02:36:26.031Z,23.11
2018-04-24T02:37:26.008Z,23.09
2018-04-24T02:38:25.949Z,23.05
2018-04-24T02:39:25.902Z,23.08
2018-04-24T02:40:25.909Z,23.08
2018-04-24T02:41:25.828Z,23.08
2018-04-24T02:42:25.781Z,23.11
2018-04-24T02:43:25.740Z,22.99
2018-04-24T02:44:25.699Z,23.07
2018-04-24T02:45:25.651Z,23.02
2018-04-24T02:46:25.611Z,23.07
2018-04-24T02:47:25.571Z,23.02
2018-04-24T02:48:25.529Z,23.11
2018-04-24T02:49:25.502Z,23.05
2018-04-24T02:50:25.453Z,23.08
2018-04-24T02:51:25.403Z,23.08
2018-04-24T02:52:25.362Z,23.07
2018-04-24T02:53:25.322Z,23.07
2018-04-24T02:54:25.274Z,23.08
2018-04-24T02:55:25.235Z,23.09
2018-04-24T02:56:25.190Z,22.99
2018-04-24T02:57:25.154Z,22.94
2018-04-24T02:58:25.109Z,23.09
2018-04-24T02:59:25.066Z,23.05
2018-04-24T03:00:25.023Z,22.96
2018-04-24T03:01:24.984Z,23.04
2018-04-24T03:02:24.941Z,23.04
2018-04-24T03:03:24.902Z,22.94
2018-04-24T03:04:24.856Z,23.01
2018-04-24T03:05:24.835Z,23.05
2018-04-24T03:06:24.782Z,22.96
2018-04-24T03:07:24.731Z,23.01
2018-04-24T03:08:24.691Z,23.01
2018-04-24T03:09:24.653Z,22.92
2018-04-24T03:10:24.611Z,23.01
2018-04-24T03:11:24.572Z,22.96
2018-04-24T03:12:24.592Z,22.97
2018-04-24T03:13:24.493Z,22.93
2018-04-24T03:14:24.439Z,23.05
2018-04-24T03:15:24.397Z,23.05
2018-04-24T03:16:24.355Z,22.96
2018-04-24T03:17:24.317Z,23.04
2018-04-24T03:18:24.275Z,23.09
2018-04-24T03:19:24.244Z,22.93
2018-04-24T03:20:24.189Z,22.99
2018-04-24T03:21:24.152Z,22.99
2018-04-24T03:22:24.106Z,23.01
2018-04-24T03:23:24.063Z,23.02
2018-04-24T03:24:24.042Z,22.96
2018-04-24T03:25:23.977Z,22.96
2018-04-24T03:26:23.943Z,22.99
2018-04-24T03:27:23.902Z,23.07
2018-04-24T03:28:23.873Z,22.99
2018-04-24T03:29:23.816Z,22.94
2018-04-24T03:30:23.778Z,22.93
2018-04-24T03:31:23.729Z,22.97
2018-04-24T03:32:23.692Z,22.97
2018-04-24T03:33:23.644Z,23.02
2018-04-24T03:34:23.604Z,23.01
2018-04-24T03:35:23.562Z,22.93
2018-04-24T03:36:23.533Z,22.93
2018-04-24T03:37:23.480Z,22.97
2018-04-24T03:38:23.442Z,22.92
2018-04-24T03:39:23.394Z,23.01
2018-04-24T03:40:23.355Z,22.99
2018-04-24T03:41:23.308Z,22.96
2018-04-24T03:42:23.268Z,23.02
2018-04-24T03:43:23.227Z,22.97
2018-04-24T03:44:23.194Z,22.96
2018-04-24T03:45:23.147Z,22.93
2018-04-24T03:46:23.108Z,22.94
2018-04-24T03:47:23.062Z,23.05
2018-04-24T03:48:23.080Z,22.94
2018-04-24T03:49:22.983Z,23.05
2018-04-24T03:50:22.938Z,22.93
2018-04-24T03:51:22.894Z,22.97
2018-04-24T03:52:22.848Z,22.97
2018-04-24T03:53:22.821Z,22.96
2018-04-24T03:54:22.768Z,22.97
2018-04-24T03:55:22.728Z,23.01
2018-04-24T03:56:22.688Z,22.96
2018-04-24T03:57:22.646Z,22.94
2018-04-24T03:58:22.605Z,23.01
2018-04-24T03:59:22.566Z,22.96
2018-04-24T04:00:22.514Z,22.94
2018-04-24T04:01:22.474Z,22.94
2018-04-24T04:02:22.436Z,22.97
2018-04-24T04:03:22.389Z,22.94
2018-04-24T04:04:22.360Z,22.97
2018-04-24T04:05:22.325Z,23.02
2018-04-24T04:06:22.278Z,23.02
2018-04-24T04:07:22.221Z,22.97
2018-04-24T04:08:22.197Z,22.97
2018-04-24T04:09:22.140Z,22.97
2018-04-24T04:10:22.111Z,22.99
2018-04-24T04:11:22.063Z,23.05
2018-04-24T04:12:22.019Z,22.99
2018-04-24T04:13:21.970Z,22.94
2018-04-24T04:14:21.932Z,22.93
2018-04-24T04:15:21.897Z,22.94
2018-04-24T04:16:21.849Z,22.94
2018-04-24T04:17:21.807Z,22.93
2018-04-24T04:18:21.772Z,22.96
2018-04-24T04:19:21.719Z,22.96
2018-04-24T04:20:21.689Z,22.94
2018-04-24T04:21:21.727Z,22.93
2018-04-24T04:22:21.600Z,22.92
2018-04-24T04:23:21.556Z,22.99
2018-04-24T04:24:21.515Z,22.99
2018-04-24T04:25:21.468Z,22.97
2018-04-24T04:26:21.427Z,22.92
2018-04-24T04:27:21.392Z,23.02
2018-04-24T04:28:21.346Z,22.83
2018-04-24T04:29:21.301Z,22.97
2018-04-24T04:30:21.262Z,22.92
2018-04-24T04:31:21.215Z,23.01
2018-04-24T04:32:21.177Z,23.02
2018-04-24T04:33:21.133Z,23.01
2018-04-24T04:34:21.090Z,22.97
2018-04-24T04:35:21.051Z,23.05
2018-04-24T04:36:21.010Z,22.92
2018-04-24T04:37:20.965Z,23.02
2018-04-24T04:38:20.926Z,22.93
2018-04-24T04:39:20.883Z,22.94
2018-04-24T04:40:20.841Z,22.97
2018-04-24T04:41:20.812Z,23.02
2018-04-24T04:42:20.758Z,22.97
2018-04-24T04:43:20.732Z,22.93
2018-04-24T04:44:20.671Z,23.01
2018-04-24T04:45:20.638Z,22.97
2018-04-24T04:46:20.606Z,23.01
2018-04-24T04:47:20.551Z,22.96
2018-04-24T04:48:20.514Z,22.90
2018-04-24T04:49:20.464Z,22.99
2018-04-24T04:50:20.421Z,22.94
2018-04-24T04:51:20.381Z,23.07
2018-04-24T04:52:20.344Z,22.94
2018-04-24T04:53:20.297Z,22.96
2018-04-24T04:54:20.259Z,22.97
2018-04-24T04:55:20.212Z,23.04
2018-04-24T04:56:20.170Z,22.97
2018-04-24T04:57:20.132Z,22.92
2018-04-24T04:58:20.084Z,23.02
2018-04-24T04:59:20.046Z,22.97
2018-04-24T05:00:20.004Z,22.99
2018-04-24T05:01:19.962Z,22.96
2018-04-24T05:02:19.926Z,22.97
2018-04-24T05:03:19.897Z,22.94
2018-04-24T05:04:19.836Z,23.01
2018-04-24T05:05:19.802Z,23.02
2018-04-24T05:06:19.762Z,22.97
2018-04-24T05:07:19.715Z,22.97
2018-04-24T05:08:19.668Z,22.99
2018-04-24T05:09:19.626Z,23.01
2018-04-24T05:10:19.591Z,22.99
2018-04-24T05:11:19.558Z,23.01
2018-04-24T05:12:19.504Z,22.99
2018-04-24T05:13:19.457Z,22.97
2018-04-24T05:14:19.414Z,22.99
2018-04-24T05:15:19.374Z,23.02
2018-04-24T05:16:19.335Z,22.96
2018-04-24T05:17:19.287Z,22.96
2018-04-24T05:18:19.246Z,23.02
2018-04-24T05:19:19.208Z,22.94
2018-04-24T05:20:19.161Z,23.04
2018-04-24T05:21:19.120Z,23.01
2018-04-24T05:22:19.084Z,22.99
2018-04-24T05:23:19.040Z,23.04
2018-04-24T05:24:18.998Z,23.05
2018-04-24T05:25:18.958Z,22.97
2018-04-24T05:26:18.911Z,23.02
2018-04-24T05:27:18.866Z,23.11
2018-04-24T05:28:18.834Z,23.05
2018-04-24T05:29:18.784Z,23.11
2018-04-24T05:30:18.767Z,23.12
2018-04-24T05:31:18.701Z,23.11
2018-04-24T05:32:18.663Z,23.12
2018-04-24T05:33:18.618Z,23.09
2018-04-24T05:34:18.578Z,23.12
2018-04-24T05:35:18.534Z,23.12
2018-04-24T05:36:18.492Z,23.14
2018-04-24T05:37:18.450Z,23.15
2018-04-24T05:38:18.409Z,23.15
2018-04-24T05:39:18.364Z,23.19
2018-04-24T05:40:18.324Z,23.20
2018-04-24T05:41:18.284Z,23.22
2018-04-24T05:42:18.242Z,23.29
2018-04-24T05:43:18.195Z,23.31
2018-04-24T05:44:18.164Z,23.29
2018-04-24T05:45:18.179Z,23.29
2018-04-24T05:46:18.070Z,23.29
2018-04-24T05:47:18.031Z,23.27
2018-04-24T05:48:17.989Z,23.24
2018-04-24T05:49:17.971Z,23.27
2018-04-24T05:50:17.905Z,23.32
2018-04-24T05:51:17.865Z,23.35
2018-04-24T05:52:17.858Z,23.31
2018-04-24T05:53:17.776Z,23.29
2018-04-24T05:54:17.742Z,23.38
2018-04-24T05:55:17.692Z,23.29
2018-04-24T05:56:17.656Z,23.32
2018-04-24T05:57:17.612Z,23.38
2018-04-24T05:58:17.570Z,23.35
2018-04-24T05:59:17.529Z,23.46
2018-04-24T06:00:17.483Z,23.38
2018-04-24T06:01:17.445Z,23.38
2018-04-24T06:02:17.400Z,23.40
2018-04-24T06:03:17.358Z,23.39
2018-04-24T06:04:17.328Z,23.40
2018-04-24T06:05:17.279Z,23.32
2018-04-24T06:06:17.238Z,23.39
2018-04-24T06:07:17.197Z,23.35
2018-04-24T06:08:17.159Z,23.47
2018-04-24T06:09:17.109Z,23.46
2018-04-24T06:10:17.065Z,23.43
2018-04-24T06:11:17.031Z,23.45
2018-04-24T06:12:16.981Z,23.40
2018-04-24T06:13:16.946Z,23.40
2018-04-24T06:14:16.902Z,23.42
2018-04-24T06:15:16.864Z,23.43
2018-04-24T06:16:16.835Z,23.47
2018-04-24T06:17:16.774Z,23.43
2018-04-24T06:18:16.729Z,23.42
2018-04-24T06:19:16.695Z,23.50
2018-04-24T06:20:16.647Z,23.45
2018-04-24T06:21:16.607Z,23.42
2018-04-24T06:22:16.561Z,23.49
2018-04-24T06:23:16.524Z,23.46
2018-04-24T06:24:16.479Z,23.46
2018-04-24T06:25:16.439Z,23.49
2018-04-24T06:26:16.398Z,23.49
2018-04-24T06:27:16.355Z,23.57
2018-04-24T06:28:16.314Z,23.55
2018-04-24T06:29:16.279Z,23.57
2018-04-24T06:30:16.229Z,23.49
2018-04-24T06:31:16.184Z,23.55
2018-04-24T06:32:16.145Z,23.50
2018-04-24T06:33:16.105Z,23.47
2018-04-24T06:34:16.070Z,23.57
2018-04-24T06:35:16.018Z,23.47
2018-04-24T06:36:15.993Z,23.50
2018-04-24T06:37:15.935Z,23.57
2018-04-24T06:38:15.894Z,23.40
2018-04-24T06:39:15.853Z,23.55
2018-04-24T06:40:15.810Z,23.58
2018-04-24T06:41:15.767Z,23.60
2018-04-24T06:42:15.795Z,23.57
2018-04-24T06:43:15.684Z,23.55
2018-04-24T06:44:15.643Z,23.62
2018-04-24T06:45:15.601Z,23.60
2018-04-24T06:46:15.561Z,23.61
2018-04-24T06:47:15.517Z,23.53
2018-04-24T06:48:15.475Z,23.58
2018-04-24T06:49:15.433Z,23.55
2018-04-24T06:50:15.413Z,23.50
2018-04-24T06:51:15.354Z,23.60
2018-04-24T06:52:15.304Z,23.58
2018-04-24T06:53:15.266Z,23.52
2018-04-24T06:54:15.220Z,23.58
2018-04-24T06:55:15.182Z,23.61
2018-04-24T06:56:15.140Z,23.60
2018-04-24T06:57:15.109Z,23.58
2018-04-24T06:58:15.108Z,23.62
2018-04-24T06:59:15.017Z,23.55
2018-04-24T07:00:14.972Z,23.70
2018-04-24T07:01:14.934Z,23.68
2018-04-24T07:02:14.886Z,23.67
2018-04-24T07:03:14.844Z,23.61
2018-04-24T07:04:14.812Z,23.71
2018-04-24T07:05:14.764Z,23.58
2018-04-24T07:06:14.726Z,23.72
2018-04-24T07:07:14.681Z,23.60
2018-04-24T07:08:14.636Z,23.68
2018-04-24T07:09:14.594Z,23.70
2018-04-24T07:10:14.559Z,23.58
2018-04-24T07:11:14.523Z,23.64
2018-04-24T07:12:14.480Z,23.70
2018-04-24T07:13:14.432Z,23.70
2018-04-24T07:14:14.387Z,23.71
2018-04-24T07:15:14.346Z,23.75
2018-04-24T07:16:14.305Z,23.62
2018-04-24T07:17:14.261Z,23.72
2018-04-24T07:18:14.219Z,23.65
2018-04-24T07:19:14.175Z,23.72
2018-04-24T07:20:14.138Z,23.65
2018-04-24T07:21:14.094Z,23.65
2018-04-24T07:22:14.100Z,23.75
2018-04-24T07:23:14.013Z,23.61
2018-04-24T07:24:13.973Z,23.58
2018-04-24T07:25:13.927Z,23.72
2018-04-24T07:26:13.885Z,23.72
2018-04-24T07:27:13.854Z,23.70
2018-04-24T07:28:13.801Z,23.67
2018-04-24T07:29:13.758Z,23.68
2018-04-24T07:30:13.727Z,23.68
2018-04-24T07:31:13.678Z,23.70
2018-04-24T07:32:13.639Z,23.70
2018-04-24T07:33:13.595Z,23.57
2018-04-24T07:34:13.551Z,23.61
2018-04-24T07:35:13.511Z,23.68
2018-04-24T07:36:13.492Z,23.67
2018-04-24T07:37:13.423Z,23.57
2018-04-24T07:38:13.384Z,23.57
2018-04-24T07:39:13.342Z,23.64
2018-04-24T07:40:13.308Z,23.67
2018-04-24T07:41:13.266Z,23.67
2018-04-24T07:42:13.216Z,23.64
2018-04-24T07:43:13.173Z,23.58
2018-04-24T07:44:13.142Z,23.71
2018-04-24T07:45:13.090Z,23.65
2018-04-24T07:46:13.049Z,23.65
2018-04-24T07:47:13.007Z,23.65
2018-04-24T07:48:12.961Z,23.71
2018-04-24T07:49:12.932Z,23.68
2018-04-24T07:50:12.887Z,23.67
2018-04-24T07:51:12.849Z,23.65
2018-04-24T07:52:12.797Z,23.72
2018-04-24T07:53:12.758Z,23.61
2018-04-24T07:54:12.710Z,23.72
2018-04-24T07:55:12.667Z,23.65
2018-04-24T07:56:12.630Z,23.71
2018-04-24T07:57:12.601Z,23.67
2018-04-24T07:58:12.549Z,23.71
2018-04-24T07:59:12.542Z,23.65
2018-04-24T08:00:12.466Z,23.70
2018-04-24T08:01:12.424Z,23.65
2018-04-24T08:02:12.379Z,23.68
2018-04-24T08:03:12.341Z,23.68
2018-04-24T08:04:12.296Z,23.71
2018-04-24T08:05:12.263Z,23.68
2018-04-24T08:06:12.212Z,23.68
2018-04-24T08:07:12.176Z,23.67
2018-04-24T08:08:12.152Z,23.67
2018-04-24T08:09:12.087Z,23.72
2018-04-24T08:10:12.050Z,23.77
2018-04-24T08:11:12.010Z,23.68
2018-04-24T08:12:11.962Z,23.77
2018-04-24T08:13:11.921Z,23.72
2018-04-24T08:14:11.877Z,23.80
2018-04-24T08:15:11.834Z,23.65
2018-04-24T08:16:11.796Z,23.76
2018-04-24T08:17:11.759Z,23.75
2018-04-24T08:18:11.718Z,23.65
2018-04-24T08:19:11.677Z,23.67
2018-04-24T08:20:11.628Z,23.65
2018-04-24T08:21:11.585Z,23.65
2018-04-24T08:22:11.618Z,23.64
2018-04-24T08:23:11.500Z,23.68
2018-04-24T08:24:11.461Z,23.68
2018-04-24T08:25:11.423Z,23.70
2018-04-24T08:26:11.378Z,23.68
2018-04-24T08:27:11.361Z,23.68
2018-04-24T08:28:11.298Z,23.61
2018-04-24T08:29:11.254Z,23.70
2018-04-24T08:30:11.213Z,23.60
2018-04-24T08:31:11.166Z,23.71
2018-04-24T08:32:11.129Z,23.55
2018-04-24T08:33:11.086Z,23.61
2018-04-24T08:34:11.043Z,23.57
2018-04-24T08:35:11.008Z,23.60
2018-04-24T08:36:10.958Z,23.61
2018-04-24T08:37:10.920Z,23.60
2018-04-24T08:38:10.882Z,23.60
2018-04-24T08:39:10.833Z,23.53
2018-04-24T08:40:10.793Z,23.58
2018-04-24T08:41:10.750Z,23.57
2018-04-24T08:42:10.708Z,23.53
2018-04-24T08:43:10.671Z,23.57
2018-04-24T08:44:10.622Z,23.57
2018-04-24T08:45:10.582Z,23.60
2018-04-24T08:46:10.543Z,23.61
2018-04-24T08:47:10.498Z,23.58
2018-04-24T08:48:10.458Z,23.55
2018-04-24T08:49:10.417Z,23.50
2018-04-24T08:50:10.375Z,23.57
2018-04-24T08:51:10.334Z,23.58
2018-04-24T08:52:10.291Z,23.58
2018-04-24T08:53:10.250Z,23.57
2018-04-24T08:54:10.209Z,23.55
2018-04-24T08:55:10.166Z,23.52
2018-04-24T08:56:10.122Z,23.57
2018-04-24T08:57:10.081Z,23.57
2018-04-24T08:58:10.046Z,23.68
2018-04-24T08:59:10.005Z,23.60
2018-04-24T09:00:09.955Z,23.58
2018-04-24T09:01:09.913Z,23.70
2018-04-24T09:02:09.893Z,23.57
2018-04-24T09:03:09.829Z,23.64
2018-04-24T09:04:09.788Z,23.57
2018-04-24T09:05:09.749Z,23.58
2018-04-24T09:06:09.704Z,23.61
2018-04-24T09:07:09.663Z,23.58
2018-04-24T09:08:09.617Z,23.55
2018-04-24T09:09:09.590Z,23.70
2018-04-24T09:10:09.540Z,23.68
2018-04-24T09:11:09.496Z,23.61
2018-04-24T09:12:09.455Z,23.62
2018-04-24T09:13:09.417Z,23.57
2018-04-24T09:14:09.443Z,23.70
2018-04-24T09:15:09.328Z,23.64
2018-04-24T09:16:09.303Z,23.67
2018-04-24T09:17:09.262Z,23.70
2018-04-24T09:18:09.217Z,23.70
2018-04-24T09:19:09.204Z,23.72
2018-04-24T09:20:09.131Z,23.68
2018-04-24T09:21:09.106Z,23.67
2018-04-24T09:22:09.037Z,23.64
2018-04-24T09:23:09.000Z,23.67
2018-04-24T09:24:08.955Z,23.61
2018-04-24T09:25:08.909Z,23.57
2018-04-24T09:26:08.868Z,23.53
2018-04-24T09:27:08.830Z,23.68
2018-04-24T09:28:08.787Z,23.61
2018-04-24T09:29:08.741Z,23.60
2018-04-24T09:30:08.703Z,23.72
2018-04-24T09:31:08.665Z,23.71
2018-04-24T09:32:08.682Z,23.71
2018-04-24T09:33:08.576Z,23.71
2018-04-24T09:34:08.543Z,23.71
2018-04-24T09:35:08.492Z,23.67
2018-04-24T09:36:08.448Z,23.64
2018-04-24T09:37:08.411Z,23.67
2018-04-24T09:38:08.364Z,23.68
2018-04-24T09:39:08.327Z,23.55
2018-04-24T09:40:08.285Z,23.58
2018-04-24T09:41:08.249Z,23.57
2018-04-24T09:42:08.202Z,23.67
2018-04-24T09:43:08.162Z,23.55
2018-04-24T09:44:08.117Z,23.70
2018-04-24T09:45:08.071Z,23.61
2018-04-24T09:46:08.034Z,23.65
2018-04-24T09:47:07.989Z,23.67
2018-04-24T09:48:07.949Z,23.55
2018-04-24T09:49:07.905Z,23.61
2018-04-24T09:50:07.867Z,23.67
2018-04-24T09:51:07.821Z,23.52
2018-04-24T09:52:07.780Z,23.55
2018-04-24T09:53:07.742Z,23.55
2018-04-24T09:54:07.703Z,23.58
2018-04-24T09:55:07.672Z,23.55
2018-04-24T09:56:07.615Z,23.67
2018-04-24T09:57:07.622Z,23.60
2018-04-24T09:58:07.531Z,23.60
2018-04-24T09:59:07.487Z,23.60
2018-04-24T10:00:07.448Z,23.57
2018-04-24T10:01:07.412Z,23.53
2018-04-24T10:02:07.400Z,23.57
2018-04-24T10:03:07.324Z,23.57
2018-04-24T10:04:07.280Z,23.58
2018-04-24T10:05:07.239Z,23.52
2018-04-24T10:06:07.201Z,23.57
2018-04-24T10:07:07.160Z,23.58
2018-04-24T10:08:07.109Z,23.57
2018-04-24T10:09:07.074Z,23.49
2018-04-24T10:10:07.032Z,23.60
2018-04-24T10:11:06.986Z,23.60
2018-04-24T10:12:06.945Z,23.57
2018-04-24T10:13:06.917Z,23.60
2018-04-24T10:14:06.860Z,23.55
2018-04-24T10:15:06.821Z,23.57
2018-04-24T10:16:06.778Z,23.58
2018-04-24T10:17:06.738Z,23.58
2018-04-24T10:18:06.695Z,23.62
2018-04-24T10:19:06.653Z,23.60
2018-04-24T10:20:06.611Z,23.60
2018-04-24T10:21:06.565Z,23.58
2018-04-24T10:22:06.531Z,23.62
2018-04-24T10:23:06.505Z,23.71
2018-04-24T10:24:06.443Z,23.57
2018-04-24T10:25:06.405Z,23.60
2018-04-24T10:26:06.359Z,23.71
2018-04-24T10:27:06.320Z,23.68
2018-04-24T10:28:06.276Z,23.60
2018-04-24T10:29:06.231Z,23.64
2018-04-24T10:30:06.193Z,23.55
2018-04-24T10:31:06.152Z,23.57
2018-04-24T10:32:06.107Z,23.53
2018-04-24T10:33:06.070Z,23.64
2018-04-24T10:34:06.026Z,23.68
2018-04-24T10:35:05.982Z,23.68
2018-04-24T10:36:05.945Z,23.53
2018-04-24T10:37:05.899Z,23.57
2018-04-24T10:38:05.865Z,23.52
2018-04-24T10:39:05.818Z,23.57
2018-04-24T10:40:05.773Z,23.53
2018-04-24T10:41:05.732Z,23.53
2018-04-24T10:42:05.693Z,23.53
2018-04-24T10:43:05.650Z,23.55
2018-04-24T10:44:05.606Z,23.49
2018-04-24T10:45:05.564Z,23.50
2018-04-24T10:46:05.523Z,23.55
2018-04-24T10:47:05.483Z,23.43
2018-04-24T10:48:05.484Z,23.53
2018-04-24T10:49:05.398Z,23.57
2018-04-24T10:50:05.361Z,23.53
2018-04-24T10:51:05.315Z,23.61
2018-04-24T10:52:05.282Z,23.60
2018-04-24T10:53:05.233Z,23.55
2018-04-24T10:54:05.193Z,23.61
2018-04-24T10:55:05.159Z,23.57
2018-04-24T10:56:05.143Z,23.57
2018-04-24T10:57:05.067Z,23.55
2018-04-24T10:58:05.027Z,23.49
2018-04-24T10:59:04.982Z,23.49
2018-04-24T11:00:04.947Z,23.57
2018-04-24T11:01:04.909Z,23.52
2018-04-24T11:02:04.872Z,23.53
2018-04-24T11:03:04.815Z,23.53
2018-04-24T11:04:04.780Z,23.52
2018-04-24T11:05:04.729Z,23.53
2018-04-24T11:06:04.687Z,23.53
2018-04-24T11:07:04.647Z,23.49
2018-04-24T11:08:04.603Z,23.57
2018-04-24T11:09:04.564Z,23.61
2018-04-24T11:10:04.522Z,23.55
2018-04-24T11:11:04.481Z,23.53
2018-04-24T11:12:04.468Z,23.55
2018-04-24T11:13:04.398Z,23.55
2018-04-24T11:14:04.356Z,23.53
2018-04-24T11:15:04.309Z,23.55
2018-04-24T11:16:04.265Z,23.58
2018-04-24T11:17:04.269Z,23.61
2018-04-24T11:18:04.189Z,23.58
2018-04-24T11:19:04.144Z,23.57
2018-04-24T11:20:04.101Z,23.57
2018-04-24T11:21:04.061Z,23.57
2018-04-24T11:22:04.029Z,23.52
2018-04-24T11:23:03.973Z,23.60
2018-04-24T11:24:03.934Z,23.58
2018-04-24T11:25:03.896Z,23.55
2018-04-24T11:26:03.851Z,23.58
2018-04-24T11:27:03.810Z,23.57
2018-04-24T11:28:03.771Z,23.53
2018-04-24T11:29:03.727Z,23.50
2018-04-24T11:30:03.681Z,23.57
2018-04-24T11:31:03.645Z,23.58
2018-04-24T11:32:03.600Z,23.55
2018-04-24T11:33:03.563Z,23.53
2018-04-24T11:34:03.516Z,23.57
2018-04-24T11:35:03.477Z,23.55
2018-04-24T11:36:03.512Z,23.47
2018-04-24T11:37:03.448Z,23.49
2018-04-24T11:38:03.349Z,23.52
2018-04-24T11:39:03.305Z,23.55
2018-04-24T11:40:03.271Z,23.58
2018-04-24T11:41:03.229Z,23.55
2018-04-24T11:42:03.187Z,23.49
2018-04-24T11:43:03.142Z,23.57
2018-04-24T11:44:03.132Z,23.50
2018-04-24T11:45:03.074Z,23.60
2018-04-24T11:46:03.016Z,23.53
2018-04-24T11:47:02.970Z,23.53
2018-04-24T11:48:02.932Z,23.53
2018-04-24T11:49:02.894Z,23.58
2018-04-24T11:50:02.851Z,23.43
2018-04-24T11:51:02.807Z,23.49
2018-04-24T11:52:02.764Z,23.53
2018-04-24T11:53:02.720Z,23.42
2018-04-24T11:54:02.680Z,23.49
2018-04-24T11:55:02.639Z,23.52
2018-04-24T11:56:02.601Z,23.47
2018-04-24T11:57:02.567Z,23.49
2018-04-24T11:58:02.521Z,23.55
2018-04-24T11:59:02.486Z,23.58
2018-04-24T12:00:02.427Z,23.52
2018-04-24T12:01:02.395Z,23.53
2018-04-24T12:02:02.351Z,23.57
2018-04-24T12:03:02.309Z,23.60
2018-04-24T12:04:02.263Z,23.58
2018-04-24T12:05:02.224Z,23.50
2018-04-24T12:06:02.177Z,23.52
2018-04-24T12:07:02.135Z,23.49
2018-04-24T12:08:02.093Z,23.52
2018-04-24T12:09:02.050Z,23.52
2018-04-24T12:10:02.109Z,23.55
2018-04-24T12:11:01.968Z,23.58
2018-04-24T12:12:01.938Z,23.53
2018-04-24T12:13:01.886Z,23.46
2018-04-24T12:14:01.840Z,23.49
2018-04-24T12:15:01.803Z,23.53
2018-04-24T12:16:01.758Z,23.55
2018-04-24T12:17:01.722Z,23.53
2018-04-24T12:18:01.679Z,23.53
2018-04-24T12:19:01.632Z,23.53
2018-04-24T12:20:01.600Z,23.52
2018-04-24T12:21:01.551Z,23.53
2018-04-24T12:22:01.507Z,23.53
2018-04-24T12:23:01.465Z,23.47
2018-04-24T12:24:01.423Z,23.49
2018-04-24T12:25:01.386Z,23.46
2018-04-24T12:26:01.351Z,23.46
2018-04-24T12:27:01.305Z,23.50
2018-04-24T12:28:01.261Z,23.58
2018-04-24T12:29:01.216Z,23.52
2018-04-24T12:30:01.172Z,23.49
2018-04-24T12:31:01.130Z,23.49
2018-04-24T12:32:01.087Z,23.50
2018-04-24T12:33:01.047Z,23.50
2018-04-24T12:34:01.008Z,23.46
2018-04-24T12:35:00.964Z,23.57
2018-04-24T12:36:00.929Z,23.57
2018-04-24T12:37:00.890Z,23.50
2018-04-24T12:38:00.844Z,23.57
2018-04-24T12:39:00.801Z,23.50
2018-04-24T12:40:00.768Z,23.57
2018-04-24T12:41:00.729Z,23.45
2018-04-24T12:42:00.678Z,23.45
2018-04-24T12:43:00.636Z,23.49
2018-04-24T12:44:00.608Z,23.53
2018-04-24T12:45:00.547Z,23.52
2018-04-24T12:46:00.504Z,23.57
2018-04-24T12:47:00.468Z,23.57
2018-04-24T12:48:00.423Z,23.57
2018-04-24T12:49:00.379Z,23.52
2018-04-24T12:50:00.339Z,23.61
2018-04-24T12:51:00.298Z,23.55
2018-04-24T12:52:00.252Z,23.52
2018-04-24T12:53:00.218Z,23.40
2018-04-24T12:54:00.167Z,23.42
2018-04-24T12:55:00.129Z,23.53
2018-04-24T12:56:00.090Z,23.42
2018-04-24T12:57:00.042Z,23.47
2018-04-24T12:58:00.005Z,23.49
2018-04-24T12:58:59.967Z,23.52
2018-04-24T12:59:59.920Z,23.53
2018-04-24T13:00:59.881Z,23.53
2018-04-24T13:01:59.837Z,23.45
2018-04-24T13:02:59.792Z,23.47
2018-04-24T13:03:59.759Z,23.55